sensor_id;sensor_type;location;lat;lon;timestamp;P1;durP1;ratioP1;P2;durP2;ratioP2
19262;SDS011;9765;52.354;20.884;2023-02-03T06:56:45;10.23;;;4.67;;
19262;SDS011;9765;52.354;20.884;2023-02-03T06:59:17;12.60;;;6.60;;
19262;SDS011;9765;52.354;20.884;2023-02-03T07:01:46;10.47;;;5.40;;
19262;SDS011;9765;52.354;20.884;2023-02-03T07:04:17;15.17;;;6.33;;
19262;SDS011;9765;52.354;20.884;2023-02-03T07:06:47;10.07;;;4.90;;
19262;SDS011;9765;52.354;20.884;2023-02-03T07:09:16;12.20;;;5.90;;
19262;SDS011;9765;52.354;20.884;2023-02-03T07:11:50;10.03;;;4.47;;
19262;SDS011;9765;52.354;20.884;2023-02-03T07:14:17;7.97;;;4.30;;
19262;SDS011;9765;52.354;20.884;2023-02-03T07:16:44;9.97;;;5.33;;
19262;SDS011;9765;52.354;20.884;2023-02-03T07:19:12;9.33;;;5.20;;
19262;SDS011;9765;52.354;20.884;2023-02-03T07:21:39;9.40;;;4.90;;
19262;SDS011;9765;52.354;20.884;2023-02-03T07:24:12;12.17;;;5.93;;
19262;SDS011;9765;52.354;20.884;2023-02-03T07:26:39;14.00;;;6.70;;
19262;SDS011;9765;52.354;20.884;2023-02-03T07:29:12;10.87;;;5.30;;
19262;SDS011;9765;52.354;20.884;2023-02-03T07:31:39;11.80;;;5.03;;
19262;SDS011;9765;52.354;20.884;2023-02-03T07:34:06;11.03;;;5.83;;
19262;SDS011;9765;52.354;20.884;2023-02-03T07:36:33;11.30;;;5.17;;
19262;SDS011;9765;52.354;20.884;2023-02-03T07:39:00;11.47;;;5.10;;
19262;SDS011;9765;52.354;20.884;2023-02-03T07:41:27;11.43;;;5.23;;
19262;SDS011;9765;52.354;20.884;2023-02-03T07:43:55;11.87;;;5.63;;
19262;SDS011;9765;52.354;20.884;2023-02-03T07:46:26;11.80;;;5.37;;
19262;SDS011;9765;52.354;20.884;2023-02-03T07:48:54;13.33;;;5.87;;
19262;SDS011;9765;52.354;20.884;2023-02-03T07:51:21;12.33;;;5.77;;
19262;SDS011;9765;52.354;20.884;2023-02-03T07:53:48;12.67;;;5.90;;
19262;SDS011;9765;52.354;20.884;2023-02-03T07:56:18;17.87;;;7.03;;
19262;SDS011;9765;52.354;20.884;2023-02-03T07:58:50;14.50;;;6.37;;
19262;SDS011;9765;52.354;20.884;2023-02-03T08:01:22;14.57;;;6.50;;
19262;SDS011;9765;52.354;20.884;2023-02-03T08:03:56;13.33;;;6.40;;
19262;SDS011;9765;52.354;20.884;2023-02-03T08:06:26;14.70;;;6.80;;
19262;SDS011;9765;52.354;20.884;2023-02-03T08:09:00;12.63;;;6.20;;
19262;SDS011;9765;52.354;20.884;2023-02-03T08:11:27;13.67;;;6.20;;
19262;SDS011;9765;52.354;20.884;2023-02-03T08:13:56;14.70;;;6.43;;
19262;SDS011;9765;52.354;20.884;2023-02-03T08:16:25;15.87;;;5.73;;
19262;SDS011;9765;52.354;20.884;2023-02-03T08:18:52;20.57;;;6.47;;
19262;SDS011;9765;52.354;20.884;2023-02-03T08:21:22;16.33;;;6.33;;
19262;SDS011;9765;52.354;20.884;2023-02-03T08:23:51;16.33;;;6.67;;
19262;SDS011;9765;52.354;20.884;2023-02-03T08:26:21;16.43;;;6.80;;
19262;SDS011;9765;52.354;20.884;2023-02-03T08:28:53;14.63;;;6.47;;
19262;SDS011;9765;52.354;20.884;2023-02-03T08:31:20;14.97;;;6.20;;
19262;SDS011;9765;52.354;20.884;2023-02-03T08:33:58;15.13;;;6.93;;
19262;SDS011;9765;52.354;20.884;2023-02-03T08:36:28;19.20;;;6.27;;
19262;SDS011;9765;52.354;20.884;2023-02-03T08:38:57;16.60;;;6.10;;
19262;SDS011;9765;52.354;20.884;2023-02-03T08:41:31;14.40;;;6.20;;
19262;SDS011;9765;52.354;20.884;2023-02-03T08:44:07;12.23;;;5.33;;
19262;SDS011;9765;52.354;20.884;2023-02-03T08:46:34;15.23;;;5.80;;
19262;SDS011;9765;52.354;20.884;2023-02-03T08:49:03;12.33;;;5.40;;
19262;SDS011;9765;52.354;20.884;2023-02-03T08:51:30;15.90;;;6.40;;
19262;SDS011;9765;52.354;20.884;2023-02-03T08:53:57;14.70;;;6.03;;
19262;SDS011;9765;52.354;20.884;2023-02-03T08:56:24;11.10;;;5.27;;
19262;SDS011;9765;52.354;20.884;2023-02-03T08:58:51;11.03;;;5.23;;
19262;SDS011;9765;52.354;20.884;2023-02-03T09:01:21;14.13;;;6.03;;
19262;SDS011;9765;52.354;20.884;2023-02-03T09:03:50;15.53;;;5.80;;
19262;SDS011;9765;52.354;20.884;2023-02-03T09:06:20;14.00;;;5.70;;
19262;SDS011;9765;52.354;20.884;2023-02-03T09:08:56;14.97;;;5.63;;
19262;SDS011;9765;52.354;20.884;2023-02-03T09:11:25;20.33;;;6.13;;
19262;SDS011;9765;52.354;20.884;2023-02-03T09:13:52;12.30;;;6.20;;
19262;SDS011;9765;52.354;20.884;2023-02-03T09:16:22;15.13;;;6.07;;
19262;SDS011;9765;52.354;20.884;2023-02-03T09:18:54;16.57;;;5.50;;
19262;SDS011;9765;52.354;20.884;2023-02-03T09:21:30;12.77;;;6.00;;
19262;SDS011;9765;52.354;20.884;2023-02-03T09:24:02;13.43;;;6.27;;
19262;SDS011;9765;52.354;20.884;2023-02-03T09:26:38;15.37;;;5.27;;
19262;SDS011;9765;52.354;20.884;2023-02-03T09:29:22;15.60;;;5.03;;
19262;SDS011;9765;52.354;20.884;2023-02-03T09:31:55;14.37;;;5.27;;
19262;SDS011;9765;52.354;20.884;2023-02-03T09:34:33;15.73;;;6.20;;
19262;SDS011;9765;52.354;20.884;2023-02-03T09:37:10;15.13;;;6.57;;
19262;SDS011;9765;52.354;20.884;2023-02-03T09:39:48;10.53;;;5.17;;
19262;SDS011;9765;52.354;20.884;2023-02-03T09:42:32;15.90;;;5.07;;
19262;SDS011;9765;52.354;20.884;2023-02-03T09:45:35;10.47;;;4.73;;
19262;SDS011;9765;52.354;20.884;2023-02-03T09:48:12;9.33;;;4.00;;
19262;SDS011;9765;52.354;20.884;2023-02-03T09:53:47;9.97;;;4.00;;
19262;SDS011;9765;52.354;20.884;2023-02-03T09:56:22;14.57;;;4.30;;
19262;SDS011;9765;52.354;20.884;2023-02-03T09:59:07;11.83;;;3.73;;
19262;SDS011;9765;52.354;20.884;2023-02-03T10:01:39;11.00;;;3.67;;
19262;SDS011;9765;52.354;20.884;2023-02-03T10:04:23;8.30;;;3.00;;
19262;SDS011;9765;52.354;20.884;2023-02-03T10:07:10;7.50;;;3.20;;
19262;SDS011;9765;52.354;20.884;2023-02-03T10:09:49;11.40;;;4.03;;
19262;SDS011;9765;52.354;20.884;2023-02-03T10:12:40;8.33;;;2.53;;
19262;SDS011;9765;52.354;20.884;2023-02-03T10:15:26;9.67;;;3.43;;
19262;SDS011;9765;52.354;20.884;2023-02-03T10:18:24;6.97;;;3.33;;
19262;SDS011;9765;52.354;20.884;2023-02-03T10:20:58;8.07;;;3.33;;
19262;SDS011;9765;52.354;20.884;2023-02-03T10:23:34;10.37;;;3.17;;
19262;SDS011;9765;52.354;20.884;2023-02-03T10:28:52;8.80;;;2.97;;
19262;SDS011;9765;52.354;20.884;2023-02-03T10:31:22;7.57;;;3.00;;
19262;SDS011;9765;52.354;20.884;2023-02-03T10:34:08;7.20;;;2.80;;
19262;SDS011;9765;52.354;20.884;2023-02-03T10:37:02;11.17;;;3.63;;
19262;SDS011;9765;52.354;20.884;2023-02-03T10:39:52;9.77;;;4.17;;
19262;SDS011;9765;52.354;20.884;2023-02-03T10:42:24;15.20;;;3.73;;
19262;SDS011;9765;52.354;20.884;2023-02-03T10:45:15;9.73;;;2.77;;
19262;SDS011;9765;52.354;20.884;2023-02-03T10:47:45;6.37;;;2.93;;
19262;SDS011;9765;52.354;20.884;2023-02-03T10:50:20;7.33;;;2.60;;
19262;SDS011;9765;52.354;20.884;2023-02-03T10:52:59;6.87;;;3.10;;
19262;SDS011;9765;52.354;20.884;2023-02-03T10:55:46;8.73;;;3.00;;
19262;SDS011;9765;52.354;20.884;2023-02-03T10:58:33;9.13;;;3.33;;
19262;SDS011;9765;52.354;20.884;2023-02-03T11:01:14;9.70;;;2.60;;
19262;SDS011;9765;52.354;20.884;2023-02-03T11:03:55;6.17;;;2.70;;
19262;SDS011;9765;52.354;20.884;2023-02-03T11:06:27;7.17;;;2.93;;
19262;SDS011;9765;52.354;20.884;2023-02-03T11:08:54;8.63;;;2.87;;
19262;SDS011;9765;52.354;20.884;2023-02-03T11:11:22;5.33;;;2.50;;
19262;SDS011;9765;52.354;20.884;2023-02-03T11:16:43;7.47;;;3.10;;
19262;SDS011;9765;52.354;20.884;2023-02-03T11:19:13;6.67;;;2.60;;
19262;SDS011;9765;52.354;20.884;2023-02-03T11:21:44;4.57;;;2.37;;
19262;SDS011;9765;52.354;20.884;2023-02-03T11:24:17;8.10;;;3.13;;
19262;SDS011;9765;52.354;20.884;2023-02-03T11:26:47;6.07;;;2.70;;
19262;SDS011;9765;52.354;20.884;2023-02-03T11:29:21;9.13;;;3.33;;
19262;SDS011;9765;52.354;20.884;2023-02-03T11:31:52;8.93;;;3.70;;
19262;SDS011;9765;52.354;20.884;2023-02-03T11:34:23;7.17;;;3.10;;
19262;SDS011;9765;52.354;20.884;2023-02-03T11:36:54;6.23;;;2.77;;
19262;SDS011;9765;52.354;20.884;2023-02-03T11:39:25;7.67;;;2.97;;
19262;SDS011;9765;52.354;20.884;2023-02-03T11:41:54;8.03;;;3.17;;
19262;SDS011;9765;52.354;20.884;2023-02-03T11:47:33;9.37;;;2.97;;
19262;SDS011;9765;52.354;20.884;2023-02-03T11:50:06;9.73;;;3.33;;
19262;SDS011;9765;52.354;20.884;2023-02-03T11:55:51;6.23;;;2.80;;
19262;SDS011;9765;52.354;20.884;2023-02-03T12:01:22;11.17;;;3.60;;
19262;SDS011;9765;52.354;20.884;2023-02-03T12:04:11;9.67;;;3.17;;
19262;SDS011;9765;52.354;20.884;2023-02-03T12:07:00;8.47;;;2.80;;
19262;SDS011;9765;52.354;20.884;2023-02-03T12:09:41;38.67;;;4.33;;
19262;SDS011;9765;52.354;20.884;2023-02-03T12:12:20;8.53;;;2.80;;
19262;SDS011;9765;52.354;20.884;2023-02-03T12:15:00;5.37;;;2.60;;
19262;SDS011;9765;52.354;20.884;2023-02-03T12:17:40;10.17;;;2.97;;
19262;SDS011;9765;52.354;20.884;2023-02-03T12:20:20;7.23;;;2.70;;
19262;SDS011;9765;52.354;20.884;2023-02-03T12:22:58;9.60;;;3.50;;
19262;SDS011;9765;52.354;20.884;2023-02-03T12:25:44;9.00;;;3.30;;
19262;SDS011;9765;52.354;20.884;2023-02-03T12:28:25;9.30;;;3.40;;
19262;SDS011;9765;52.354;20.884;2023-02-03T12:31:07;7.47;;;3.07;;
19262;SDS011;9765;52.354;20.884;2023-02-03T12:33:41;11.10;;;2.93;;
19262;SDS011;9765;52.354;20.884;2023-02-03T12:36:13;8.33;;;2.97;;
19262;SDS011;9765;52.354;20.884;2023-02-03T12:38:49;6.37;;;2.93;;
19262;SDS011;9765;52.354;20.884;2023-02-03T12:41:21;8.93;;;3.50;;
19262;SDS011;9765;52.354;20.884;2023-02-03T12:43:53;6.80;;;2.77;;
19262;SDS011;9765;52.354;20.884;2023-02-03T12:46:27;12.50;;;3.90;;
19262;SDS011;9765;52.354;20.884;2023-02-03T12:48:57;11.73;;;3.90;;
19262;SDS011;9765;52.354;20.884;2023-02-03T12:51:38;9.23;;;3.77;;
19262;SDS011;9765;52.354;20.884;2023-02-03T12:54:20;9.00;;;3.50;;
19262;SDS011;9765;52.354;20.884;2023-02-03T12:56:59;9.10;;;3.50;;
19262;SDS011;9765;52.354;20.884;2023-02-03T12:59:42;8.63;;;3.73;;
19262;SDS011;9765;52.354;20.884;2023-02-03T13:02:28;8.60;;;3.43;;
19262;SDS011;9765;52.354;20.884;2023-02-03T13:05:04;8.13;;;3.47;;
19262;SDS011;9765;52.354;20.884;2023-02-03T13:07:45;11.43;;;3.63;;
19262;SDS011;9765;52.354;20.884;2023-02-03T13:10:21;9.33;;;4.03;;
19262;SDS011;9765;52.354;20.884;2023-02-03T13:12:55;8.93;;;4.20;;
19262;SDS011;9765;52.354;20.884;2023-02-03T13:15:25;10.23;;;4.27;;
19262;SDS011;9765;52.354;20.884;2023-02-03T13:17:55;10.90;;;3.80;;
19262;SDS011;9765;52.354;20.884;2023-02-03T13:20:25;13.43;;;4.23;;
19262;SDS011;9765;52.354;20.884;2023-02-03T13:22:56;10.57;;;3.50;;
19262;SDS011;9765;52.354;20.884;2023-02-03T13:25:24;11.60;;;4.20;;
19262;SDS011;9765;52.354;20.884;2023-02-03T13:28:00;13.40;;;4.73;;
19262;SDS011;9765;52.354;20.884;2023-02-03T13:33:30;12.37;;;4.87;;
19262;SDS011;9765;52.354;20.884;2023-02-03T13:39:36;15.53;;;5.90;;
19262;SDS011;9765;52.354;20.884;2023-02-03T13:42:15;16.13;;;5.73;;
19262;SDS011;9765;52.354;20.884;2023-02-03T13:44:47;15.97;;;4.70;;
19262;SDS011;9765;52.354;20.884;2023-02-03T13:47:16;9.10;;;4.00;;
